Chacon, New Mexico
Current Conditions -  °F | °C
As of 1:55 AM on Wednesday 26 Nov 2014 (Local Time) from KAXX Reporting Station
Clear Clear  
Wind Chill: 26°   Ceiling: Unl
Heat Index: 26°   Visibility: 10mi
Dew Point: 13°   Wind: 3mph
Humidity: 59%   Direction: 180°S
Pressure: 30.24"   Gusts: NA
Location:  36.14°N, 105.37°W
Report Text: KAXX 260855Z AUTO 18003KT 10SM CLR M03/M10 A3024 RMK AO2 T10351105
Loading
Personal Weather Stations






























Interactive Weather Map New forecast layout! Learn more

10-Day Weather Forecast

Advertisements
Track Severe Weather on mobile